Time;durP1;ratioP1;P1;durP2;ratioP2;P2;SDS_P1;SDS_P2;PMS_P1;PMS_P2;Temp;Humidity;BMP_temperature;BMP_pressure;BME280_temperature;BME280_humidity;BME280_pressure;Samples;Min_cycle;Max_cycle;Signal;HPM_P1;HPM_P2
2022/04/20 00:01:05;;;;;;;4.25;3.80;;;9.40;53.50;;;;;;5055546;28;20036;-64
2022/04/20 00:03:31;;;;;;;4.35;3.85;;;9.30;53.60;;;;;;5055463;28;20418;-66
2022/04/20 00:05:57;;;;;;;5.47;3.85;;;9.20;53.70;;;;;;5055890;28;20513;-66
2022/04/20 00:08:22;;;;;;;5.25;3.50;;;9.20;53.60;;;;;;5056058;28;20029;-66
2022/04/20 00:10:48;;;;;;;5.10;3.88;;;9.10;53.60;;;;;;5056331;28;20068;-66
2022/04/20 00:13:14;;;;;;;4.20;3.80;;;9.10;53.70;;;;;;5059923;28;20549;-65
2022/04/20 00:15:40;;;;;;;4.28;3.88;;;9.10;53.80;;;;;;5057538;28;20068;-65
2022/04/20 00:18:06;;;;;;;4.50;3.97;;;9.00;53.80;;;;;;5057231;28;20102;-66
2022/04/20 00:20:31;;;;;;;5.13;4.05;;;9.00;53.80;;;;;;5058145;28;20025;-66
2022/04/20 00:22:57;;;;;;;8.65;3.40;;;9.00;53.90;;;;;;5057539;28;20036;-65
2022/04/20 00:25:23;;;;;;;3.72;3.42;;;8.90;54.00;;;;;;5057552;28;20088;-65
2022/04/20 00:27:48;;;;;;;4.20;3.80;;;8.90;53.90;;;;;;5057081;28;20033;-65
2022/04/20 00:30:14;;;;;;;3.97;3.60;;;8.80;54.00;;;;;;5056896;28;20060;-65
2022/04/20 00:32:40;;;;;;;3.90;3.60;;;8.80;53.90;;;;;;5058586;28;20071;-66
2022/04/20 00:35:07;;;;;;;4.57;3.80;;;8.80;54.00;;;;;;5057989;28;20110;-64
2022/04/20 00:37:34;;;;;;;4.38;3.95;;;8.70;54.00;;;;;;5058307;28;20035;-65
2022/04/20 00:40:00;;;;;;;4.35;3.60;;;8.70;54.10;;;;;;5057871;28;20033;-66
2022/04/20 00:42:27;;;;;;;6.22;3.83;;;8.70;54.20;;;;;;5057406;28;20039;-65
2022/04/20 00:44:54;;;;;;;4.13;3.72;;;8.60;54.30;;;;;;5056515;28;20056;-66
2022/04/20 00:47:20;;;;;;;5.05;3.95;;;8.60;54.20;;;;;;5057915;28;20107;-66
2022/04/20 00:49:47;;;;;;;4.63;3.88;;;8.60;54.30;;;;;;5057321;28;20540;-65
2022/04/20 00:52:13;;;;;;;5.57;3.50;;;8.50;54.30;;;;;;5058126;28;20127;-66
2022/04/20 00:54:39;;;;;;;4.43;3.63;;;8.50;54.30;;;;;;5056991;28;20200;-66
2022/04/20 00:57:05;;;;;;;4.30;3.90;;;8.50;54.30;;;;;;5056338;28;20039;-65
2022/04/20 00:59:33;;;;;;;4.00;3.60;;;8.50;54.30;;;;;;5057373;28;20033;-65
2022/04/20 01:02:00;;;;;;;4.60;3.42;;;8.40;54.20;;;;;;5056622;28;20072;-66
2022/04/20 01:04:26;;;;;;;3.90;3.50;;;8.40;54.20;;;;;;5055340;28;20036;-66
2022/04/20 01:06:52;;;;;;;3.58;3.10;;;8.40;54.10;;;;;;5056311;28;20037;-65
2022/04/20 01:09:18;;;;;;;4.10;3.38;;;8.40;54.10;;;;;;5056686;28;20406;-65
2022/04/20 01:11:45;;;;;;;5.50;3.30;;;8.40;54.10;;;;;;5055264;28;20059;-65
2022/04/20 01:14:11;;;;;;;5.32;3.30;;;8.40;54.10;;;;;;5057475;28;20108;-65
2022/04/20 01:16:37;;;;;;;3.97;3.58;;;8.30;54.10;;;;;;5054264;28;20044;-65
2022/04/20 01:19:03;;;;;;;4.57;3.50;;;8.30;54.10;;;;;;5055852;28;20033;-65
2022/04/20 01:21:29;;;;;;;3.67;3.28;;;8.30;54.20;;;;;;5055936;28;20033;-66
2022/04/20 01:23:55;;;;;;;3.80;3.40;;;8.30;54.20;;;;;;5055426;28;20033;-65
2022/04/20 01:26:21;;;;;;;3.70;3.40;;;8.20;54.10;;;;;;5053458;28;20522;-66
2022/04/20 01:28:47;;;;;;;3.92;3.45;;;8.20;54.20;;;;;;5055973;28;20509;-66
2022/04/20 01:31:17;;;;;;;4.30;3.75;;;8.20;54.20;;;;;;5054895;28;20405;-66
2022/04/20 01:33:44;;;;;;;4.65;3.70;;;8.10;54.40;;;;;;5056336;28;20036;-66
2022/04/20 01:36:11;;;;;;;3.70;3.40;;;8.10;54.30;;;;;;5057653;28;20639;-66
2022/04/20 01:38:40;;;;;;;5.25;3.75;;;8.00;54.30;;;;;;5055162;28;20040;-64
2022/04/20 01:41:06;;;;;;;4.47;3.50;;;8.00;54.50;;;;;;5054828;28;20400;-65
2022/04/20 01:43:32;;;;;;;4.03;3.58;;;8.00;54.40;;;;;;5053442;28;20036;-66
2022/04/20 01:45:58;;;;;;;4.25;3.70;;;7.90;54.50;;;;;;5056191;28;20150;-66
2022/04/20 01:48:23;;;;;;;3.63;3.33;;;7.80;54.50;;;;;;5053473;28;20540;-64
2022/04/20 01:53:33;;;;;;;4.00;3.60;;;7.70;54.70;;;;;;5053682;28;20069;-62
2022/04/20 01:56:00;;;;;;;4.65;3.47;;;7.70;54.80;;;;;;5055298;28;20049;-65
2022/04/20 01:58:26;;;;;;;4.55;3.80;;;7.60;55.40;;;;;;5053910;28;20826;-65
2022/04/20 02:00:52;;;;;;;4.00;3.60;;;7.60;55.00;;;;;;5051650;28;20037;-66
2022/04/20 02:03:17;;;;;;;4.13;3.72;;;7.50;55.00;;;;;;5055535;28;20040;-66
2022/04/20 02:05:43;;;;;;;5.38;3.90;;;7.50;55.00;;;;;;5054768;28;20119;-66
2022/04/20 02:08:09;;;;;;;4.20;3.55;;;7.50;55.20;;;;;;5053775;28;20112;-65
2022/04/20 02:10:35;;;;;;;4.28;3.88;;;7.40;55.20;;;;;;5049082;28;20127;-63
2022/04/20 02:13:00;;;;;;;4.63;3.90;;;7.40;55.40;;;;;;5055225;28;20033;-66
2022/04/20 02:15:27;;;;;;;4.20;3.75;;;7.40;55.30;;;;;;5055933;28;20028;-65
2022/04/20 02:17:53;;;;;;;5.55;3.70;;;7.40;55.50;;;;;;5052806;28;20347;-65
2022/04/20 02:20:18;;;;;;;3.85;3.55;;;7.30;55.50;;;;;;5054324;28;20041;-66
2022/04/20 02:22:44;;;;;;;4.20;3.40;;;7.30;55.60;;;;;;5053852;28;20137;-65
2022/04/20 02:25:09;;;;;;;5.18;3.63;;;7.20;55.50;;;;;;5053293;28;20514;-66
2022/04/20 02:27:35;;;;;;;6.07;3.60;;;7.20;55.50;;;;;;5051179;28;20043;-66
2022/04/20 02:30:01;;;;;;;5.80;4.00;;;7.20;55.70;;;;;;5059184;28;20582;-66
2022/04/20 02:32:27;;;;;;;5.15;3.42;;;7.10;55.80;;;;;;5055327;28;20078;-65
2022/04/20 02:34:52;;;;;;;4.88;4.30;;;7.10;56.40;;;;;;5052822;28;20033;-66
2022/04/20 02:37:18;;;;;;;5.30;4.20;;;7.10;56.10;;;;;;5054902;28;20035;-66
2022/04/20 02:39:44;;;;;;;4.68;3.97;;;7.00;56.20;;;;;;5052675;28;20045;-65
2022/04/20 02:42:11;;;;;;;4.97;4.00;;;7.00;56.30;;;;;;5054456;28;20044;-65
2022/04/20 02:44:39;;;;;;;5.28;3.85;;;6.90;56.30;;;;;;5053946;28;20111;-66
2022/04/20 02:47:05;;;;;;;4.90;4.25;;;6.90;56.50;;;;;;5053379;28;20025;-65
2022/04/20 02:49:30;;;;;;;4.30;3.78;;;6.90;56.60;;;;;;5055387;28;20041;-66
2022/04/20 02:51:56;;;;;;;5.55;4.00;;;6.90;56.70;;;;;;5052905;28;20047;-65
2022/04/20 02:54:21;;;;;;;4.22;3.78;;;6.90;56.70;;;;;;5052210;28;20506;-65
2022/04/20 02:56:47;;;;;;;6.03;4.03;;;6.80;56.60;;;;;;5056677;28;20599;-65
2022/04/20 02:59:13;;;;;;;4.90;4.50;;;6.80;56.70;;;;;;5056341;28;20040;-66
2022/04/20 03:01:39;;;;;;;4.40;4.00;;;6.80;56.70;;;;;;5056795;28;20051;-65
2022/04/20 03:04:05;;;;;;;5.13;4.13;;;6.80;56.70;;;;;;5056566;28;20041;-65
2022/04/20 03:06:31;;;;;;;4.80;4.30;;;6.80;56.70;;;;;;5056735;28;20495;-65
2022/04/20 03:08:56;;;;;;;4.38;3.97;;;6.80;56.80;;;;;;5054433;28;20025;-65
2022/04/20 03:11:22;;;;;;;4.82;4.13;;;6.80;56.80;;;;;;5057667;28;20059;-66
2022/04/20 03:13:48;;;;;;;5.35;4.35;;;6.70;56.80;;;;;;5057622;28;20040;-66
2022/04/20 03:16:14;;;;;;;6.65;4.28;;;6.70;56.80;;;;;;5057746;28;20043;-65
2022/04/20 03:18:40;;;;;;;4.75;4.32;;;6.70;57.00;;;;;;5058169;28;20041;-66
2022/04/20 03:21:06;;;;;;;6.72;4.40;;;6.60;57.00;;;;;;5058196;28;20056;-65
2022/04/20 03:23:32;;;;;;;5.13;4.63;;;6.60;57.10;;;;;;5058248;28;20032;-65
2022/04/20 03:25:57;;;;;;;7.15;4.57;;;6.60;57.30;;;;;;5057101;28;20410;-65
2022/04/20 03:28:23;;;;;;;5.13;4.63;;;6.50;57.40;;;;;;5054957;28;20412;-64
2022/04/20 03:30:50;;;;;;;5.20;4.57;;;6.50;57.60;;;;;;5057688;28;20047;-65
2022/04/20 03:33:16;;;;;;;7.45;4.70;;;6.40;57.70;;;;;;5063824;28;20417;-65
2022/04/20 03:35:43;;;;;;;5.30;4.78;;;6.40;57.70;;;;;;5055012;28;20174;-65
2022/04/20 03:38:09;;;;;;;5.03;4.53;;;6.40;57.80;;;;;;5059849;28;20333;-65
2022/04/20 03:40:35;;;;;;;5.63;4.90;;;6.30;57.80;;;;;;5056151;28;20577;-64
2022/04/20 03:43:01;;;;;;;6.00;4.57;;;6.30;57.80;;;;;;5053928;28;20041;-65
2022/04/20 03:45:27;;;;;;;6.93;4.68;;;6.30;58.10;;;;;;5056749;28;20102;-65
2022/04/20 03:47:53;;;;;;;6.78;5.28;;;6.20;58.00;;;;;;5057746;28;20481;-65
2022/04/20 03:50:19;;;;;;;7.57;5.20;;;6.20;58.20;;;;;;5056052;28;20497;-63
2022/04/20 03:52:44;;;;;;;6.20;5.40;;;6.20;58.40;;;;;;5058757;28;20037;-65
2022/04/20 03:55:10;;;;;;;5.78;5.03;;;6.10;58.50;;;;;;5057763;28;20021;-65
2022/04/20 03:57:36;;;;;;;6.95;5.43;;;6.10;58.60;;;;;;5056406;28;20021;-64
2022/04/20 04:00:04;;;;;;;5.85;5.25;;;6.10;58.60;;;;;;5057217;28;20088;-64
2022/04/20 04:02:30;;;;;;;5.93;5.32;;;6.00;58.60;;;;;;5057389;28;20101;-65
2022/04/20 04:04:56;;;;;;;6.10;5.50;;;5.90;58.50;;;;;;5055942;28;20037;-64
2022/04/20 04:07:21;;;;;;;7.95;5.68;;;5.90;58.60;;;;;;5055381;28;20048;-64
2022/04/20 04:09:47;;;;;;;6.15;5.55;;;5.90;58.70;;;;;;5055316;28;20040;-65
2022/04/20 04:12:12;;;;;;;6.25;5.63;;;5.90;58.70;;;;;;5056720;28;20053;-65
2022/04/20 04:14:39;;;;;;;5.43;4.93;;;5.90;59.40;;;;;;5055083;28;20028;-64
2022/04/20 04:17:06;;;;;;;6.93;5.05;;;5.80;58.70;;;;;;5054614;28;20028;-65
2022/04/20 04:19:32;;;;;;;6.82;5.68;;;5.80;58.70;;;;;;5056847;28;20089;-65
2022/04/20 04:21:58;;;;;;;6.10;5.18;;;5.80;58.70;;;;;;5055432;28;20040;-65
2022/04/20 04:24:35;;;;;;;6.43;5.78;;;5.80;58.80;;;;;;5055871;28;20483;-64
2022/04/20 04:27:03;;;;;;;7.55;5.80;;;5.80;58.80;;;;;;5052738;28;20048;-65
2022/04/20 04:29:28;;;;;;;7.47;6.13;;;5.80;58.80;;;;;;5055254;28;20035;-64
2022/04/20 04:31:55;;;;;;;8.77;6.45;;;5.80;58.80;;;;;;5054215;28;20170;-65
2022/04/20 04:34:20;;;;;;;6.90;6.20;;;5.70;58.90;;;;;;5055869;28;20059;-67
2022/04/20 04:36:46;;;;;;;7.05;6.32;;;5.80;59.10;;;;;;5054338;28;20086;-64
2022/04/20 04:39:14;;;;;;;9.23;6.43;;;5.80;59.20;;;;;;5054994;28;21996;-65
2022/04/20 04:41:42;;;;;;;7.45;6.40;;;5.70;59.10;;;;;;5054004;28;20056;-65
2022/04/20 04:44:08;;;;;;;7.20;6.00;;;5.80;59.10;;;;;;5050773;28;20036;-64
2022/04/20 04:49:18;;;;;;;10.50;9.40;;;5.70;59.10;;;;;;5057153;28;20038;-65
2022/04/20 04:51:43;;;;;;;8.13;6.63;;;5.70;59.10;;;;;;5056539;28;20036;-65
2022/04/20 04:54:09;;;;;;;7.88;6.65;;;5.70;59.30;;;;;;5055962;28;20036;-65
2022/04/20 04:56:35;;;;;;;7.82;6.70;;;5.70;59.40;;;;;;5056541;28;20313;-65
2022/04/20 04:59:00;;;;;;;7.22;6.32;;;5.80;59.50;;;;;;5057877;28;20029;-64
2022/04/20 05:01:26;;;;;;;9.50;7.65;;;5.70;59.50;;;;;;5057764;28;20028;-65
2022/04/20 05:03:55;;;;;;;8.60;7.70;;;5.70;59.60;;;;;;5057903;28;20033;-64
2022/04/20 05:06:20;;;;;;;10.32;6.95;;;5.70;59.70;;;;;;5055699;28;20721;-65
2022/04/20 05:08:46;;;;;;;8.35;7.45;;;5.70;59.80;;;;;;5055924;28;20456;-64
2022/04/20 05:11:12;;;;;;;9.68;8.20;;;5.70;60.00;;;;;;5053559;28;20119;-64
2022/04/20 05:13:38;;;;;;;11.07;8.15;;;5.70;60.20;;;;;;5058199;28;20031;-64
2022/04/20 05:16:04;;;;;;;8.55;7.63;;;5.70;60.40;;;;;;5055255;28;20406;-65
2022/04/20 05:18:29;;;;;;;9.77;7.68;;;5.70;60.70;;;;;;5055724;28;20504;-64
2022/04/20 05:20:55;;;;;;;8.90;7.95;;;5.70;60.80;;;;;;5057068;28;20033;-66
2022/04/20 05:23:21;;;;;;;9.13;7.90;;;5.70;61.60;;;;;;5055095;28;20040;-65
2022/04/20 05:25:46;;;;;;;9.77;7.35;;;5.70;61.30;;;;;;5055069;28;20120;-66
2022/04/20 05:28:12;;;;;;;9.50;7.93;;;5.70;61.50;;;;;;5057459;28;20032;-64
2022/04/20 05:30:38;;;;;;;11.50;8.20;;;5.70;61.60;;;;;;5056072;28;20036;-64
2022/04/20 05:33:04;;;;;;;9.20;7.88;;;5.70;61.80;;;;;;5055677;28;20115;-64
2022/04/20 05:35:29;;;;;;;9.82;7.90;;;5.70;62.00;;;;;;5057082;28;20025;-65
2022/04/20 05:43:23;;;;;;;8.40;7.00;;;5.70;62.00;;;;;;5054473;28;20040;-64
2022/04/20 05:45:50;;;;;;;10.73;8.07;;;5.80;62.10;;;;;;5056892;28;20033;-63
2022/04/20 05:48:16;;;;;;;9.85;7.47;;;5.80;62.40;;;;;;5054276;28;20033;-65
2022/04/20 05:50:43;;;;;;;9.30;7.20;;;5.80;62.10;;;;;;5054742;28;20093;-64
2022/04/20 05:53:09;;;;;;;9.45;7.25;;;5.80;62.20;;;;;;5057170;28;20039;-64
2022/04/20 05:55:34;;;;;;;10.10;7.25;;;5.90;62.30;;;;;;5062132;28;20029;-65
2022/04/20 05:58:00;;;;;;;9.40;6.65;;;5.90;62.40;;;;;;5054354;28;20033;-62
2022/04/20 06:00:26;;;;;;;8.40;7.00;;;5.90;62.30;;;;;;5055251;28;20037;-63
2022/04/20 06:02:54;;;;;;;7.68;6.57;;;6.00;62.30;;;;;;5055480;28;20608;-64
2022/04/20 06:05:20;;;;;;;7.80;6.78;;;6.00;62.50;;;;;;5055385;28;20022;-64
2022/04/20 06:07:46;;;;;;;17.17;6.53;;;6.10;62.50;;;;;;5056646;28;20162;-64
2022/04/20 06:10:12;;;;;;;7.00;6.30;;;6.10;63.10;;;;;;5056306;28;20091;-65
2022/04/20 06:12:38;;;;;;;7.07;5.90;;;6.20;62.60;;;;;;5054697;28;20481;-65
2022/04/20 06:15:05;;;;;;;7.32;5.55;;;6.20;62.50;;;;;;5071790;28;20033;-65
2022/04/20 06:17:31;;;;;;;5.78;5.05;;;6.30;62.00;;;;;;5053946;28;20039;-64
2022/04/20 06:19:57;;;;;;;6.43;5.57;;;6.30;61.90;;;;;;5053950;28;20041;-65
2022/04/20 06:22:23;;;;;;;6.55;5.20;;;6.40;61.70;;;;;;5056292;28;20029;-64
2022/04/20 06:24:49;;;;;;;7.03;5.30;;;6.50;61.80;;;;;;5033246;28;21633;-65
2022/04/20 06:27:15;;;;;;;8.60;5.28;;;6.50;61.50;;;;;;5035300;28;20039;-65
2022/04/20 06:29:40;;;;;;;6.03;5.43;;;6.60;61.30;;;;;;5039082;28;20083;-65
2022/04/20 06:32:07;;;;;;;6.63;5.00;;;6.60;61.10;;;;;;5036999;28;20029;-64
2022/04/20 06:34:32;;;;;;;7.95;4.63;;;6.70;61.00;;;;;;5037661;28;20037;-65
2022/04/20 06:36:58;;;;;;;6.10;4.93;;;6.70;60.80;;;;;;5059848;28;20029;-64
2022/04/20 06:39:24;;;;;;;5.30;4.80;;;6.80;60.70;;;;;;5059187;28;20083;-64
2022/04/20 06:41:51;;;;;;;6.03;4.97;;;6.80;60.50;;;;;;5059230;28;20035;-65
2022/04/20 06:44:17;;;;;;;5.55;4.95;;;6.90;60.40;;;;;;5059093;28;20037;-64
2022/04/20 06:46:43;;;;;;;7.00;5.00;;;6.90;60.10;;;;;;5059647;28;20031;-64
2022/04/20 06:49:08;;;;;;;6.63;5.22;;;7.00;60.10;;;;;;5055887;28;20037;-65
2022/04/20 06:59:47;;;;;;;5.60;4.65;;;7.20;59.50;;;;;;5060822;28;20404;-64
2022/04/20 07:02:12;;;;;;;6.40;5.07;;;7.30;59.30;;;;;;5056651;28;20402;-64
2022/04/20 07:04:38;;;;;;;6.10;5.07;;;7.30;59.90;;;;;;5058648;28;20039;-64
2022/04/20 07:07:04;;;;;;;6.63;5.13;;;7.40;59.40;;;;;;5057415;28;20025;-64
2022/04/20 07:09:30;;;;;;;6.40;5.03;;;7.40;59.50;;;;;;5059578;28;20025;-63
2022/04/20 07:11:55;;;;;;;5.63;5.05;;;7.50;59.40;;;;;;5059252;28;20082;-65
2022/04/20 07:14:21;;;;;;;5.05;4.55;;;7.50;59.20;;;;;;5059007;28;21155;-64
2022/04/20 07:16:46;;;;;;;5.55;4.97;;;7.60;59.10;;;;;;5056996;28;20128;-65
2022/04/20 07:19:12;;;;;;;8.63;5.35;;;7.70;59.20;;;;;;5057280;28;20032;-64
2022/04/20 07:21:39;;;;;;;6.05;5.03;;;7.80;59.10;;;;;;5058423;28;20091;-65
2022/04/20 07:24:05;;;;;;;6.70;5.07;;;7.80;58.90;;;;;;5059808;28;20029;-64
2022/04/20 07:26:30;;;;;;;5.70;5.15;;;7.90;58.80;;;;;;5059168;28;20032;-64
2022/04/20 07:28:56;;;;;;;5.90;4.95;;;8.00;58.60;;;;;;5057729;28;20031;-65
2022/04/20 07:31:21;;;;;;;7.40;5.22;;;8.10;58.40;;;;;;5057955;28;20048;-64
2022/04/20 07:33:47;;;;;;;7.00;5.22;;;8.10;58.20;;;;;;5057956;28;20501;-64
2022/04/20 07:36:13;;;;;;;6.00;4.93;;;8.20;58.20;;;;;;5057856;28;20033;-65
2022/04/20 07:38:38;;;;;;;4.75;4.35;;;8.20;58.10;;;;;;5059063;28;20501;-64
2022/04/20 07:41:04;;;;;;;5.55;5.00;;;8.30;57.90;;;;;;5056383;28;20072;-65
2022/04/20 07:43:31;;;;;;;6.80;5.10;;;8.40;57.70;;;;;;5057590;28;20052;-65
2022/04/20 07:45:57;;;;;;;5.30;4.80;;;8.40;57.50;;;;;;5058692;28;20512;-65
2022/04/20 07:48:22;;;;;;;4.78;4.38;;;8.50;57.50;;;;;;5055817;28;20056;-65
2022/04/20 07:50:49;;;;;;;5.15;4.65;;;8.60;57.40;;;;;;5056565;28;20138;-65
2022/04/20 07:53:15;;;;;;;5.47;4.80;;;8.70;57.20;;;;;;5057644;28;20043;-64
2022/04/20 07:55:46;;;;;;;5.55;4.97;;;8.70;57.10;;;;;;5059309;28;20459;-64
2022/04/20 07:58:12;;;;;;;8.60;4.22;;;8.80;57.00;;;;;;5056563;28;20033;-64
2022/04/20 08:00:38;;;;;;;7.68;5.03;;;8.90;56.90;;;;;;5056753;28;20078;-64
2022/04/20 08:03:14;;;;;;;5.82;5.20;;;8.90;56.70;;;;;;5055565;28;20111;-63
2022/04/20 08:05:40;;;;;;;5.75;4.43;;;9.10;56.50;;;;;;5058867;28;20044;-64
2022/04/20 08:08:07;;;;;;;8.35;5.70;;;9.20;56.40;;;;;;5057430;28;20433;-65
2022/04/20 08:10:33;;;;;;;7.32;5.40;;;9.20;56.40;;;;;;5057939;28;20721;-64
2022/04/20 08:12:59;;;;;;;5.68;5.03;;;9.30;56.30;;;;;;5057196;28;20032;-64
2022/04/20 08:15:25;;;;;;;5.50;5.00;;;9.40;56.20;;;;;;5056833;28;20044;-65
2022/04/20 08:17:51;;;;;;;6.18;5.18;;;9.50;56.00;;;;;;5059927;28;20556;-63
2022/04/20 08:20:17;;;;;;;6.28;5.43;;;9.60;55.90;;;;;;5058651;28;20882;-65
2022/04/20 08:22:43;;;;;;;7.85;5.30;;;9.70;55.80;;;;;;5058002;28;20040;-65
2022/04/20 08:25:10;;;;;;;5.88;5.28;;;9.70;55.60;;;;;;5057280;28;20036;-64
2022/04/20 08:27:36;;;;;;;10.73;5.15;;;9.80;55.50;;;;;;5059649;28;20095;-64
2022/04/20 08:30:04;;;;;;;6.78;5.32;;;9.90;55.40;;;;;;5060333;28;20032;-65
2022/04/20 08:32:30;;;;;;;6.20;5.03;;;9.90;55.20;;;;;;5059263;28;20516;-64
2022/04/20 08:34:56;;;;;;;5.75;5.25;;;10.00;54.90;;;;;;5057487;28;20028;-65
2022/04/20 08:37:21;;;;;;;6.25;5.28;;;10.10;54.90;;;;;;5056602;28;20036;-65
2022/04/20 08:39:47;;;;;;;6.00;5.15;;;10.10;54.80;;;;;;5058311;28;20430;-64
2022/04/20 08:42:16;;;;;;;8.07;5.82;;;10.20;54.80;;;;;;5059124;28;20067;-64
2022/04/20 08:44:46;;;;;;;6.85;5.43;;;10.30;54.60;;;;;;5059171;28;20127;-64
2022/04/20 08:47:22;;;;;;;6.97;5.60;;;10.40;54.40;;;;;;5059572;28;20031;-65
2022/04/20 08:49:49;;;;;;;6.05;5.47;;;10.50;54.10;;;;;;5061762;28;20040;-63
2022/04/20 08:52:42;;;;;;;6.03;4.82;;;10.50;53.90;;;;;;5054107;28;20033;-65
2022/04/20 08:55:07;;;;;;;5.40;4.90;;;10.60;53.70;;;;;;5057570;28;20036;-65
2022/04/20 08:57:34;;;;;;;5.80;5.10;;;10.70;53.70;;;;;;5059198;28;20106;-64
2022/04/20 09:00:01;;;;;;;5.32;4.82;;;10.70;53.20;;;;;;5059071;28;20041;-64
2022/04/20 09:02:28;;;;;;;5.30;4.80;;;10.80;53.10;;;;;;5064051;28;20035;-65
2022/04/20 09:04:55;;;;;;;4.70;4.30;;;10.80;52.90;;;;;;5057028;28;20029;-65
2022/04/20 09:07:22;;;;;;;5.15;4.65;;;10.90;52.40;;;;;;5057335;28;20036;-65
2022/04/20 09:09:47;;;;;;;4.97;4.50;;;10.90;52.40;;;;;;5060111;28;20041;-65
2022/04/20 09:12:17;;;;;;;6.40;4.20;;;11.00;52.40;;;;;;5057113;28;20036;-64
2022/04/20 09:14:45;;;;;;;5.75;4.43;;;11.10;52.10;;;;;;5057292;28;20398;-65
2022/04/20 09:17:18;;;;;;;4.75;4.25;;;11.10;52.10;;;;;;5057573;28;20025;-65
2022/04/20 09:19:51;;;;;;;5.55;4.00;;;11.20;51.60;;;;;;5059489;28;20047;-65
2022/04/20 09:22:20;;;;;;;4.85;4.13;;;11.30;51.40;;;;;;5056811;28;20048;-65
2022/04/20 09:25:05;;;;;;;4.38;3.90;;;11.40;51.50;;;;;;5061984;28;20037;-64
2022/04/20 09:27:32;;;;;;;4.40;3.95;;;11.50;50.60;;;;;;5057804;28;20043;-65
2022/04/20 09:29:59;;;;;;;3.97;3.60;;;11.50;51.00;;;;;;5059111;28;20041;-64
2022/04/20 09:32:44;;;;;;;3.80;3.47;;;11.60;50.70;;;;;;5057517;28;20033;-64
2022/04/20 09:35:15;;;;;;;4.00;3.70;;;11.60;49.90;;;;;;5056717;28;20029;-64
2022/04/20 09:37:42;;;;;;;5.03;3.42;;;11.70;50.00;;;;;;5059420;28;20044;-65
2022/04/20 09:40:16;;;;;;;3.88;3.53;;;11.70;50.20;;;;;;5058317;28;20113;-65
2022/04/20 09:43:09;;;;;;;3.70;3.25;;;11.80;50.20;;;;;;5058576;28;20044;-64
2022/04/20 09:45:36;;;;;;;3.90;3.05;;;11.90;49.40;;;;;;5052527;28;20457;-65
2022/04/20 09:51:11;;;;;;;3.40;3.10;;;12.00;48.40;;;;;;5058662;28;20093;-64
2022/04/20 09:53:36;;;;;;;5.50;3.10;;;12.10;49.30;;;;;;5058053;28;20033;-65
2022/04/20 09:56:15;;;;;;;3.70;3.10;;;12.20;49.60;;;;;;5056721;28;20086;-65
2022/04/20 09:58:41;;;;;;;3.58;3.28;;;12.30;48.70;;;;;;5054967;28;20552;-64
2022/04/20 10:01:08;;;;;;;3.13;2.90;;;12.40;49.10;;;;;;5057914;28;20033;-65
2022/04/20 10:03:34;;;;;;;3.22;3.00;;;12.40;48.80;;;;;;5058458;28;20522;-65
2022/04/20 10:06:00;;;;;;;3.30;3.00;;;12.50;48.50;;;;;;5060777;28;20037;-65
2022/04/20 10:08:26;;;;;;;3.40;3.10;;;12.60;48.40;;;;;;5060447;28;20036;-65
2022/04/20 10:10:54;;;;;;;3.90;3.08;;;12.70;48.30;;;;;;5058116;28;20043;-65
2022/04/20 10:13:22;;;;;;;3.67;2.88;;;12.70;48.00;;;;;;5061587;28;20024;-65
2022/04/20 10:16:09;;;;;;;3.65;3.15;;;12.80;48.00;;;;;;5061722;28;20029;-65
2022/04/20 10:18:37;;;;;;;3.45;3.15;;;12.90;47.70;;;;;;5060930;28;20036;-64
2022/04/20 10:21:04;;;;;;;3.53;2.90;;;13.00;47.50;;;;;;5060444;28;20390;-64
2022/04/20 10:23:30;;;;;;;2.70;2.40;;;13.00;47.00;;;;;;5062171;28;20119;-65
2022/04/20 10:25:58;;;;;;;2.88;2.60;;;13.00;47.00;;;;;;5061947;28;20241;-64
2022/04/20 10:28:28;;;;;;;4.00;2.70;;;13.10;46.60;;;;;;5062695;28;20028;-64
2022/04/20 10:31:22;;;;;;;3.10;2.80;;;13.10;46.60;;;;;;5062759;28;20438;-64
2022/04/20 10:33:48;;;;;;;3.30;2.95;;;13.20;45.90;;;;;;5062743;28;20432;-65
2022/04/20 10:36:16;;;;;;;3.42;2.72;;;13.20;46.70;;;;;;5061848;28;20506;-65
2022/04/20 10:38:45;;;;;;;3.35;3.05;;;13.30;46.40;;;;;;5062176;28;20473;-65
2022/04/20 10:41:19;;;;;;;4.63;2.90;;;13.30;46.20;;;;;;5060674;28;20032;-65
2022/04/20 10:43:46;;;;;;;3.90;2.88;;;13.40;45.90;;;;;;5059730;28;20510;-64
2022/04/20 10:46:12;;;;;;;3.80;3.15;;;13.40;46.10;;;;;;5065846;28;20043;-65
2022/04/20 10:48:48;;;;;;;2.70;2.50;;;13.50;45.90;;;;;;5061691;28;20593;-64
2022/04/20 10:51:15;;;;;;;2.72;2.30;;;13.50;45.50;;;;;;5062620;28;20246;-64
2022/04/20 10:53:48;;;;;;;3.40;3.08;;;13.60;45.80;;;;;;5058014;28;20260;-65
2022/04/20 10:56:14;;;;;;;4.10;3.47;;;13.70;45.30;;;;;;5058614;28;20041;-65
2022/04/20 10:59:05;;;;;;;3.05;2.75;;;13.80;45.00;;;;;;5061076;28;20650;-65
2022/04/20 11:01:30;;;;;;;3.40;3.10;;;13.80;44.40;;;;;;5060330;28;20102;-65
2022/04/20 11:04:07;;;;;;;2.80;2.60;;;13.80;45.00;;;;;;5062388;28;20505;-64
2022/04/20 11:07:03;;;;;;;3.58;3.05;;;13.90;44.50;;;;;;5061131;28;20563;-65
2022/04/20 11:09:49;;;;;;;2.92;2.70;;;13.90;44.50;;;;;;5049640;28;20338;-65
2022/04/20 11:21:03;;;;;;;2.95;2.67;;;14.00;43.90;;;;;;5053686;28;20123;-65
2022/04/20 11:23:57;;;;;;;2.85;2.55;;;14.10;43.60;;;;;;5055400;28;20033;-63
2022/04/20 11:26:24;;;;;;;2.65;2.45;;;14.10;43.40;;;;;;5018334;28;20032;-65
2022/04/20 11:28:51;;;;;;;3.13;2.83;;;14.10;44.00;;;;;;5056975;28;20379;-63
2022/04/20 11:31:18;;;;;;;3.30;3.00;;;14.10;43.70;;;;;;5057771;28;20044;-65
2022/04/20 11:33:43;;;;;;;2.88;2.40;;;14.10;42.90;;;;;;5058567;28;20040;-65
2022/04/20 11:36:14;;;;;;;5.07;3.00;;;14.10;43.50;;;;;;5060485;28;20029;-65
2022/04/20 11:38:41;;;;;;;5.55;3.10;;;14.20;43.20;;;;;;5057877;28;20025;-64
2022/04/20 11:41:09;;;;;;;2.97;2.78;;;14.20;43.30;;;;;;5059508;28;20048;-63
2022/04/20 11:43:36;;;;;;;3.03;2.70;;;14.20;43.30;;;;;;5058968;28;20489;-65
2022/04/20 11:46:02;;;;;;;3.35;2.70;;;14.30;43.30;;;;;;5060031;28;20047;-65
2022/04/20 11:48:29;;;;;;;3.40;3.10;;;14.40;43.00;;;;;;5057526;28;20037;-65
2022/04/20 11:50:56;;;;;;;4.03;2.88;;;14.40;42.70;;;;;;5059564;28;20051;-65
2022/04/20 11:53:30;;;;;;;3.25;2.92;;;14.40;42.60;;;;;;5059215;28;20564;-65
2022/04/20 11:55:56;;;;;;;4.00;2.60;;;14.40;42.70;;;;;;5061559;28;20036;-65
2022/04/20 11:58:21;;;;;;;3.22;2.92;;;14.50;42.50;;;;;;5058661;28;20052;-65
2022/04/20 12:00:57;;;;;;;3.00;2.80;;;14.50;42.60;;;;;;5058561;28;20424;-65
2022/04/20 12:03:22;;;;;;;3.20;2.90;;;14.50;42.70;;;;;;5057052;28;20080;-65
2022/04/20 12:05:59;;;;;;;3.65;3.35;;;14.60;42.70;;;;;;5056548;28;20063;-65
2022/04/20 12:08:25;;;;;;;3.28;2.85;;;14.60;41.60;;;;;;5056362;28;20044;-64
2022/04/20 12:10:52;;;;;;;3.13;2.78;;;14.60;42.40;;;;;;5056023;28;20466;-65
2022/04/20 12:13:34;;;;;;;3.50;3.20;;;14.60;42.30;;;;;;5058134;28;20421;-65
2022/04/20 12:16:10;;;;;;;4.30;2.85;;;14.70;41.70;;;;;;5059395;28;20045;-65
2022/04/20 12:18:39;;;;;;;2.70;2.50;;;14.70;41.60;;;;;;5058894;28;20097;-64
2022/04/20 12:21:07;;;;;;;3.17;2.70;;;14.70;42.00;;;;;;5058602;28;20056;-65
2022/04/20 12:23:35;;;;;;;3.08;2.78;;;14.70;41.50;;;;;;5058318;28;20037;-65
2022/04/20 12:26:05;;;;;;;3.30;2.95;;;14.70;41.40;;;;;;5059533;28;20033;-64
2022/04/20 12:28:44;;;;;;;3.60;2.80;;;14.70;40.90;;;;;;5062002;28;20029;-63
2022/04/20 12:31:12;;;;;;;5.32;3.15;;;14.80;41.10;;;;;;5065011;28;20029;-64
2022/04/20 12:33:39;;;;;;;3.88;3.10;;;14.80;40.50;;;;;;5058768;28;20037;-65
2022/04/20 12:36:10;;;;;;;3.60;3.00;;;14.80;41.50;;;;;;5058936;28;20116;-65
2022/04/20 12:38:49;;;;;;;3.08;2.85;;;14.80;41.30;;;;;;5058772;28;20055;-65
2022/04/20 12:41:36;;;;;;;2.60;2.40;;;14.90;41.00;;;;;;5059749;28;20533;-65
2022/04/20 12:44:23;;;;;;;3.25;2.65;;;14.80;40.50;;;;;;5058862;28;20039;-65
2022/04/20 12:46:48;;;;;;;2.58;2.38;;;14.90;41.20;;;;;;5057351;28;20116;-64
2022/04/20 12:49:24;;;;;;;3.33;2.45;;;14.90;41.00;;;;;;5058428;28;20144;-65
2022/04/20 12:51:51;;;;;;;3.20;2.90;;;14.90;40.30;;;;;;5059718;28;20041;-65
2022/04/20 12:54:26;;;;;;;3.40;2.80;;;15.00;41.00;;;;;;5058406;28;20099;-64
2022/04/20 13:02:20;;;;;;;3.37;3.07;;;15.10;40.70;;;;;;5057405;28;20053;-64
2022/04/20 13:04:47;;;;;;;4.05;2.83;;;15.10;40.80;;;;;;5056992;28;20047;-61
2022/04/20 13:07:13;;;;;;;5.05;3.00;;;15.10;40.70;;;;;;5059380;28;20086;-65
2022/04/20 13:09:38;;;;;;;3.10;2.80;;;15.10;39.70;;;;;;5059568;28;20029;-64
2022/04/20 13:12:04;;;;;;;4.75;3.28;;;15.00;39.30;;;;;;5055705;28;20130;-65
2022/04/20 13:14:31;;;;;;;3.33;3.03;;;15.00;39.70;;;;;;5058171;28;20327;-65
2022/04/20 13:16:57;;;;;;;3.13;2.90;;;15.00;40.30;;;;;;5057428;28;20032;-65
2022/04/20 13:19:23;;;;;;;3.25;2.78;;;15.00;40.40;;;;;;5057639;28;20028;-64
2022/04/20 13:21:49;;;;;;;5.35;2.47;;;15.00;40.40;;;;;;5060074;28;20029;-65
2022/04/20 13:27:54;;;;;;;3.72;3.42;;;15.00;40.20;;;;;;5058261;28;20384;-65
2022/04/20 13:29:46;;;;;;;3.22;2.60;;;15.10;40.40;;;;;;5056827;28;20574;-65
2022/04/20 13:32:12;;;;;;;4.13;2.42;;;15.10;40.40;;;;;;5056879;28;20057;-65
2022/04/20 13:34:38;;;;;;;6.05;2.55;;;15.20;40.40;;;;;;5053476;28;20094;-64